Terminal Aerodrome Forecast
Issued by NWS

Current Version | Previous Version | Text Only | Print | Product List | Glossary Off
Versions: 1 2 3 4 5 6 7 8 9 10 11 12 13 14 15 16 17 18 19 20 21 22 23 24 25

108
FTUS41 KILN 251739
TAFLUK
TAF
KLUK 251739Z 2518/2618 27012G20KT P6SM -SHRA SCT008 OVC035
     FM252000 29012KT P6SM VCSH OVC015
     FM260000 29010KT P6SM OVC028
     FM260300 25003KT P6SM BKN035
      TEMPO 2608/2612 1SM BR
     FM261500 22008KT P6SM SCT025 OVC150=

USA.gov is the U.S. government's official web portal to all federal, state and local government web resources and services.